Anette — A8WY8 — position and weather

sailwx.info

Track history (hours):
 
Tides and Currents Weather Stations Pressure Air Temp Water Temp Dewpoint Dewpoint Depression Visibility Wind Speed Wind Dir Waves Ship Positions

Anette

Last reported at 2014-Nov-21 00:33 UTC. Time now 2014-Nov-24 14:01 UTC.
Position N 46°31' W 072°13'.

Length 180 m; draft 7.7 m.

Type: Cargo ship. MMSI: 636092099.

Date/timePositionNaut miles runAvg speedWind from/ knotsBaromVisibWave heightAir tempDewpointWater temp
2014-Nov-21 00:33N 46°31' W 072°13'1414.2
2014-Nov-20 23:34N 46°22' W 072°29'4 3.5
2014-Nov-20 22:28N 46°20' W 072°33'0 0.0
2014-Nov-20 21:28N 46°20' W 072°33'0 0.0
2014-Nov-20 20:28N 46°20' W 072°33'0 0.0
2014-Nov-20 19:28N 46°20' W 072°33'0 0.0
2014-Nov-20 18:28N 46°20' W 072°33'0 0.0
2014-Nov-20 17:28N 46°20' W 072°33'0 0.0
2014-Nov-20 16:28N 46°20' W 072°33'0 0.0
2014-Nov-20 15:28N 46°20' W 072°33'0 0.0
2014-Nov-20 14:28N 46°20' W 072°33'0 0.0
2014-Nov-20 13:28N 46°20' W 072°33'0 0.0
2014-Nov-20 12:22N 46°20' W 072°33'0 0.0
2014-Nov-20 11:28N 46°20' W 072°33'0 0.0
2014-Nov-20 10:22N 46°20' W 072°33'0 0.0
2014-Nov-20 09:28N 46°20' W 072°33'0 0.0
2014-Nov-20 08:28N 46°20' W 072°33'0 0.0
2014-Nov-20 07:28N 46°20' W 072°33'0 0.0
2014-Nov-20 06:28N 46°20' W 072°33'0 0.0
2014-Nov-20 05:28N 46°20' W 072°33'0 0.0
2014-Nov-20 04:28N 46°20' W 072°33'0 0.0
2014-Nov-20 03:28N 46°20' W 072°33'0 0.0
2014-Nov-20 02:28N 46°20' W 072°33'0 0.0
2014-Nov-20 01:28N 46°20' W 072°33'0 0.0
2014-Nov-20 00:28N 46°20' W 072°33'2 0.7
2014-Nov-19 21:33N 46°18' W 072°34'0 0.0
2014-Nov-19 20:30N 46°18' W 072°34'0 0.0
2014-Nov-19 19:30N 46°18' W 072°34'0 0.0
2014-Nov-19 18:30N 46°18' W 072°34'0 0.0
2014-Nov-19 17:30N 46°18' W 072°34'0 0.0
2014-Nov-19 16:30N 46°18' W 072°34'0 0.0
2014-Nov-19 15:30N 46°18' W 072°34'0 0.0
2014-Nov-19 14:30N 46°18' W 072°34'0 0.0
2014-Nov-19 13:30N 46°18' W 072°34'0 0.0
2014-Nov-19 12:30N 46°18' W 072°34'0 0.0
2014-Nov-19 11:29N 46°18' W 072°34'0 0.0
2014-Nov-19 10:23N 46°18' W 072°34'0 0.0
2014-Nov-19 09:29N 46°18' W 072°34'0 0.0
2014-Nov-19 08:29N 46°18' W 072°34'0 0.0
2014-Nov-19 07:29N 46°18' W 072°34'0 0.0
2014-Nov-19 06:29N 46°18' W 072°34'0 0.0
2014-Nov-19 05:29N 46°18' W 072°34'0 0.0
2014-Nov-19 04:29N 46°18' W 072°34'0 0.0
2014-Nov-19 03:29N 46°18' W 072°34'0 0.0
2014-Nov-19 02:29N 46°18' W 072°34'0 0.0
2014-Nov-19 01:29N 46°18' W 072°34'0 0.0
2014-Nov-19 00:29N 46°18' W 072°34'0 0.0
2014-Nov-18 23:29N 46°18' W 072°34'0 0.0
2014-Nov-18 22:29N 46°18' W 072°34'0 0.0
2014-Nov-18 21:29N 46°18' W 072°34'0 0.0
2014-Nov-18 20:30N 46°18' W 072°34'0 0.1
2014-Nov-18 19:33N 46°18' W 072°34'3 2.7
2014-Nov-18 18:31N 46°20' W 072°32'0 0.0
2014-Nov-18 17:31N 46°20' W 072°32'0 0.0
2014-Nov-18 16:31N 46°20' W 072°32'0 0.0
2014-Nov-18 15:31N 46°20' W 072°32'0 0.0
2014-Nov-18 14:31N 46°20' W 072°32'0 0.0
2014-Nov-18 13:31N 46°20' W 072°32'0 0.0
2014-Nov-18 12:31N 46°20' W 072°32'0 0.0
2014-Nov-18 11:31N 46°20' W 072°32'0 0.0
2014-Nov-18 10:31N 46°20' W 072°32'0 0.0
2014-Nov-18 09:31N 46°20' W 072°32'0 0.0
2014-Nov-18 08:31N 46°20' W 072°32'0 0.0
2014-Nov-18 07:31N 46°20' W 072°32'0 0.0
2014-Nov-18 06:31N 46°20' W 072°32'0 0.0
2014-Nov-18 05:25N 46°20' W 072°32'0 0.0
2014-Nov-18 04:31N 46°20' W 072°32'0 0.0
2014-Nov-18 03:31N 46°20' W 072°32'0 0.0
2014-Nov-18 02:31N 46°20' W 072°32'0 0.0
2014-Nov-18 01:31N 46°20' W 072°32'0 0.0
2014-Nov-18 00:31N 46°20' W 072°32'0 0.0
2014-Nov-17 23:31N 46°20' W 072°32'0 0.0
2014-Nov-17 22:25N 46°20' W 072°32'0 0.0
2014-Nov-17 21:31N 46°20' W 072°32'0 0.0
2014-Nov-17 20:31N 46°20' W 072°32'0 0.0
2014-Nov-17 19:31N 46°20' W 072°32'0 0.0
2014-Nov-17 18:31N 46°20' W 072°32'0 0.0
2014-Nov-17 17:31N 46°20' W 072°32'0 0.0
2014-Nov-17 16:31N 46°20' W 072°32'0 0.0
2014-Nov-17 15:31N 46°20' W 072°32'0 0.0
2014-Nov-17 14:31N 46°20' W 072°32'0 0.0
2014-Nov-17 13:31N 46°20' W 072°32'0 0.0
2014-Nov-17 12:31N 46°20' W 072°32'0 0.0
2014-Nov-17 11:31N 46°20' W 072°32'0 0.0
2014-Nov-17 10:31N 46°20' W 072°32'0 0.0
2014-Nov-17 09:31N 46°20' W 072°32'0 0.0
2014-Nov-17 08:31N 46°20' W 072°32'0 0.0
2014-Nov-17 07:31N 46°20' W 072°32'0 0.0
2014-Nov-17 06:25N 46°20' W 072°32'0 0.0
2014-Nov-17 05:31N 46°20' W 072°32'0 0.0
2014-Nov-17 04:31N 46°20' W 072°32'0 0.0
2014-Nov-17 03:31N 46°20' W 072°32'0 0.0
2014-Nov-17 02:31N 46°20' W 072°32'0 0.0
2014-Nov-17 01:31N 46°20' W 072°32'0 0.0
2014-Nov-17 00:31N 46°20' W 072°32'0 0.0
2014-Nov-16 23:31N 46°20' W 072°32'0 0.0
2014-Nov-16 22:31N 46°20' W 072°32'0 0.0
2014-Nov-16 21:25N 46°20' W 072°32'0 0.0
2014-Nov-16 20:25N 46°20' W 072°32'0 0.0
2014-Nov-16 19:31N 46°20' W 072°32'0 0.0
2014-Nov-16 18:31N 46°20' W 072°32'0 0.0
2014-Nov-16 17:25N 46°20' W 072°32'0 0.0
2014-Nov-16 16:31N 46°20' W 072°32'0 0.0
2014-Nov-16 15:31N 46°20' W 072°32'0 0.0
2014-Nov-16 14:31N 46°20' W 072°32'0 0.0
2014-Nov-16 13:31N 46°20' W 072°32'0 0.0
2014-Nov-16 12:31N 46°20' W 072°32'0 0.0
2014-Nov-16 11:31N 46°20' W 072°32'0 0.0
2014-Nov-16 10:31N 46°20' W 072°32'0 0.0
2014-Nov-16 09:31N 46°20' W 072°32'0 0.0
2014-Nov-16 08:31N 46°20' W 072°32'0 0.0
2014-Nov-16 07:25N 46°20' W 072°32'0 0.0
2014-Nov-16 06:31N 46°20' W 072°32'0 0.0
2014-Nov-16 05:31N 46°20' W 072°32'0 0.4
2014-Nov-16 04:33N 46°20' W 072°32'7 7.0
2014-Nov-16 03:33N 46°24' W 072°24'1010.4
2014-Nov-16 02:33N 46°31' W 072°12'  
Track history (hours):
 
Tides and Currents Weather Stations Pressure Air Temp Water Temp Dewpoint Dewpoint Depression Visibility Wind Speed Wind Dir Waves Ship Positions

Anette

Last reported at 2014-Nov-21 00:33 UTC. Time now 2014-Nov-24 14:01 UTC.
Position N 46°31' W 072°13'.

Length 180 m; draft 7.7 m.

Type: Cargo ship. MMSI: 636092099.

Date/timePositionNaut miles runAvg speedWind from/ knotsBaromVisibWave heightAir tempDewpointWater temp
2014-Nov-21 00:33N 46°31' W 072°13'1414.2
2014-Nov-20 23:34N 46°22' W 072°29'4 3.5
2014-Nov-20 22:28N 46°20' W 072°33'0 0.0
2014-Nov-20 21:28N 46°20' W 072°33'0 0.0
2014-Nov-20 20:28N 46°20' W 072°33'0 0.0
2014-Nov-20 19:28N 46°20' W 072°33'0 0.0
2014-Nov-20 18:28N 46°20' W 072°33'0 0.0
2014-Nov-20 17:28N 46°20' W 072°33'0 0.0
2014-Nov-20 16:28N 46°20' W 072°33'0 0.0
2014-Nov-20 15:28N 46°20' W 072°33'0 0.0
2014-Nov-20 14:28N 46°20' W 072°33'0 0.0
2014-Nov-20 13:28N 46°20' W 072°33'0 0.0
2014-Nov-20 12:22N 46°20' W 072°33'0 0.0
2014-Nov-20 11:28N 46°20' W 072°33'0 0.0
2014-Nov-20 10:22N 46°20' W 072°33'0 0.0
2014-Nov-20 09:28N 46°20' W 072°33'0 0.0
2014-Nov-20 08:28N 46°20' W 072°33'0 0.0
2014-Nov-20 07:28N 46°20' W 072°33'0 0.0
2014-Nov-20 06:28N 46°20' W 072°33'0 0.0
2014-Nov-20 05:28N 46°20' W 072°33'0 0.0
2014-Nov-20 04:28N 46°20' W 072°33'0 0.0
2014-Nov-20 03:28N 46°20' W 072°33'0 0.0
2014-Nov-20 02:28N 46°20' W 072°33'0 0.0
2014-Nov-20 01:28N 46°20' W 072°33'0 0.0
2014-Nov-20 00:28N 46°20' W 072°33'2 0.7
2014-Nov-19 21:33N 46°18' W 072°34'0 0.0
2014-Nov-19 20:30N 46°18' W 072°34'0 0.0
2014-Nov-19 19:30N 46°18' W 072°34'0 0.0
2014-Nov-19 18:30N 46°18' W 072°34'0 0.0
2014-Nov-19 17:30N 46°18' W 072°34'0 0.0
2014-Nov-19 16:30N 46°18' W 072°34'0 0.0
2014-Nov-19 15:30N 46°18' W 072°34'0 0.0
2014-Nov-19 14:30N 46°18' W 072°34'0 0.0
2014-Nov-19 13:30N 46°18' W 072°34'0 0.0
2014-Nov-19 12:30N 46°18' W 072°34'0 0.0
2014-Nov-19 11:29N 46°18' W 072°34'0 0.0
2014-Nov-19 10:23N 46°18' W 072°34'0 0.0
2014-Nov-19 09:29N 46°18' W 072°34'0 0.0
2014-Nov-19 08:29N 46°18' W 072°34'0 0.0
2014-Nov-19 07:29N 46°18' W 072°34'0 0.0
2014-Nov-19 06:29N 46°18' W 072°34'0 0.0
2014-Nov-19 05:29N 46°18' W 072°34'0 0.0
2014-Nov-19 04:29N 46°18' W 072°34'0 0.0
2014-Nov-19 03:29N 46°18' W 072°34'0 0.0
2014-Nov-19 02:29N 46°18' W 072°34'0 0.0
2014-Nov-19 01:29N 46°18' W 072°34'0 0.0
2014-Nov-19 00:29N 46°18' W 072°34'0 0.0
2014-Nov-18 23:29N 46°18' W 072°34'0 0.0
2014-Nov-18 22:29N 46°18' W 072°34'0 0.0
2014-Nov-18 21:29N 46°18' W 072°34'0 0.0
2014-Nov-18 20:30N 46°18' W 072°34'0 0.1
2014-Nov-18 19:33N 46°18' W 072°34'3 2.7
2014-Nov-18 18:31N 46°20' W 072°32'0 0.0
2014-Nov-18 17:31N 46°20' W 072°32'0 0.0
2014-Nov-18 16:31N 46°20' W 072°32'0 0.0
2014-Nov-18 15:31N 46°20' W 072°32'0 0.0
2014-Nov-18 14:31N 46°20' W 072°32'0 0.0
2014-Nov-18 13:31N 46°20' W 072°32'0 0.0
2014-Nov-18 12:31N 46°20' W 072°32'0 0.0
2014-Nov-18 11:31N 46°20' W 072°32'0 0.0
2014-Nov-18 10:31N 46°20' W 072°32'0 0.0
2014-Nov-18 09:31N 46°20' W 072°32'0 0.0
2014-Nov-18 08:31N 46°20' W 072°32'0 0.0
2014-Nov-18 07:31N 46°20' W 072°32'0 0.0
2014-Nov-18 06:31N 46°20' W 072°32'0 0.0
2014-Nov-18 05:25N 46°20' W 072°32'0 0.0
2014-Nov-18 04:31N 46°20' W 072°32'0 0.0
2014-Nov-18 03:31N 46°20' W 072°32'0 0.0
2014-Nov-18 02:31N 46°20' W 072°32'0 0.0
2014-Nov-18 01:31N 46°20' W 072°32'0 0.0
2014-Nov-18 00:31N 46°20' W 072°32'0 0.0
2014-Nov-17 23:31N 46°20' W 072°32'0 0.0
2014-Nov-17 22:25N 46°20' W 072°32'0 0.0
2014-Nov-17 21:31N 46°20' W 072°32'0 0.0
2014-Nov-17 20:31N 46°20' W 072°32'0 0.0
2014-Nov-17 19:31N 46°20' W 072°32'0 0.0
2014-Nov-17 18:31N 46°20' W 072°32'0 0.0
2014-Nov-17 17:31N 46°20' W 072°32'0 0.0
2014-Nov-17 16:31N 46°20' W 072°32'0 0.0
2014-Nov-17 15:31N 46°20' W 072°32'0 0.0
2014-Nov-17 14:31N 46°20' W 072°32'0 0.0
2014-Nov-17 13:31N 46°20' W 072°32'0 0.0
2014-Nov-17 12:31N 46°20' W 072°32'0 0.0
2014-Nov-17 11:31N 46°20' W 072°32'0 0.0
2014-Nov-17 10:31N 46°20' W 072°32'0 0.0
2014-Nov-17 09:31N 46°20' W 072°32'0 0.0
2014-Nov-17 08:31N 46°20' W 072°32'0 0.0
2014-Nov-17 07:31N 46°20' W 072°32'0 0.0
2014-Nov-17 06:25N 46°20' W 072°32'0 0.0
2014-Nov-17 05:31N 46°20' W 072°32'0 0.0
2014-Nov-17 04:31N 46°20' W 072°32'0 0.0
2014-Nov-17 03:31N 46°20' W 072°32'0 0.0
2014-Nov-17 02:31N 46°20' W 072°32'0 0.0
2014-Nov-17 01:31N 46°20' W 072°32'0 0.0
2014-Nov-17 00:31N 46°20' W 072°32'0 0.0
2014-Nov-16 23:31N 46°20' W 072°32'0 0.0
2014-Nov-16 22:31N 46°20' W 072°32'0 0.0
2014-Nov-16 21:25N 46°20' W 072°32'0 0.0
2014-Nov-16 20:25N 46°20' W 072°32'0 0.0
2014-Nov-16 19:31N 46°20' W 072°32'0 0.0
2014-Nov-16 18:31N 46°20' W 072°32'0 0.0
2014-Nov-16 17:25N 46°20' W 072°32'0 0.0
2014-Nov-16 16:31N 46°20' W 072°32'0 0.0
2014-Nov-16 15:31N 46°20' W 072°32'0 0.0
2014-Nov-16 14:31N 46°20' W 072°32'0 0.0
2014-Nov-16 13:31N 46°20' W 072°32'0 0.0
2014-Nov-16 12:31N 46°20' W 072°32'0 0.0
2014-Nov-16 11:31N 46°20' W 072°32'0 0.0
2014-Nov-16 10:31N 46°20' W 072°32'0 0.0
2014-Nov-16 09:31N 46°20' W 072°32'0 0.0
2014-Nov-16 08:31N 46°20' W 072°32'0 0.0
2014-Nov-16 07:25N 46°20' W 072°32'0 0.0
2014-Nov-16 06:31N 46°20' W 072°32'0 0.0
2014-Nov-16 05:31N 46°20' W 072°32'0 0.4
2014-Nov-16 04:33N 46°20' W 072°32'7 7.0
2014-Nov-16 03:33N 46°24' W 072°24'1010.4
2014-Nov-16 02:33N 46°31' W 072°12'  

Dump ship's entire track history